»·PEaware :: N6794H KSMX-KBFL

N6794H :: KSMX-KBFL

FLIGHT INFORMATION

Flight Status: Arrived
Operator: Privately registered:
United States
More flights under this callsign
Pilot: Austin B. (17780)
Aircraft: CESSNA 172 SKYHAWK
(C172)
More flights by this aircraft type
Origin: KSMX Santa Maria Pub/Capt Hancock
United States
Destination: KBFL Meadows
United States
More flights between these airports :: More routes between these airports
Route:
File this flight plan on PilotEdge
Remarks: New to pilot edge / CAT-05
Altitude:
(Current/Filed)
5,500ft
Speed:
(Current/Filed)
110kts
Departed: 03-Jan-18 08:08 PM
Arrived: 03-Jan-18 09:09 PM
Distance/Time
Traveled:
76nm/1:01
Distance/Time
To Go:
Arrived

Flight Plot

Page will automatically refresh every two minutes.


Map Options




Map Legend


Flown Route
Filed Route
Departure Airport
Arrival Airport
Navaid (VOR, NDB)
Fix

Horizontal Profiles

Position Reports

Time Latitude Longitude Heading Altitude Ground
Speed
03-Jan-18 20:00 34.896937 -120.445976 132 265ft 0kts
03-Jan-18 20:01 34.896937 -120.445976 132 265ft 0kts
03-Jan-18 20:02 34.896937 -120.445976 132 265ft 0kts
03-Jan-18 20:03 34.896937 -120.445976 132 265ft 0kts
03-Jan-18 20:04 34.896937 -120.445976 132 265ft 0kts
03-Jan-18 20:05 34.896937 -120.445976 132 265ft 0kts
03-Jan-18 20:06 34.896510 -120.446058 252 265ft 7kts
03-Jan-18 20:07 34.896308 -120.447466 155 265ft 8kts
03-Jan-18 20:08 34.894770 -120.445664 134 265ft 5kts
03-Jan-18 20:09 34.893424 -120.444952 180 265ft 3kts
03-Jan-18 20:10 34.893295 -120.444953 180 265ft 0kts
03-Jan-18 20:11 34.893295 -120.444953 180 265ft 0kts
03-Jan-18 20:12 34.893295 -120.444953 180 265ft 0kts
03-Jan-18 20:13 34.893295 -120.444953 180 265ft 0kts
03-Jan-18 20:14 34.896424 -120.450071 318 310ft 74kts
03-Jan-18 20:15 34.914141 -120.456534 65 1059ft 86kts
03-Jan-18 20:16 34.913609 -120.427956 90 1893ft 83kts
03-Jan-18 20:17 34.914138 -120.401053 72 2658ft 85kts
03-Jan-18 20:18 34.924210 -120.372173 64 3348ft 92kts
03-Jan-18 20:19 34.934274 -120.346385 62 4171ft 80kts
03-Jan-18 20:20 34.943844 -120.322181 61 4883ft 79kts
03-Jan-18 20:21 34.953648 -120.297261 71 5494ft 85kts
03-Jan-18 20:22 34.966338 -120.264253 70 5504ft 113kts
03-Jan-18 20:23 34.979295 -120.231163 70 5505ft 105kts
03-Jan-18 20:24 34.991736 -120.199408 70 5508ft 103kts
03-Jan-18 20:25 35.004008 -120.168052 70 5510ft 102kts
03-Jan-18 20:26 35.016200 -120.136868 71 5540ft 101kts
03-Jan-18 20:27 35.027830 -120.107119 70 5514ft 95kts
03-Jan-18 20:28 35.039322 -120.077707 69 5516ft 96kts
03-Jan-18 20:29 35.051232 -120.047751 69 5472ft 98kts
03-Jan-18 20:30 35.062843 -120.018051 69 5472ft 96kts
03-Jan-18 20:31 35.074301 -119.988638 69 5473ft 95kts
03-Jan-18 20:32 35.085713 -119.959307 69 5472ft 95kts
03-Jan-18 20:33 35.097040 -119.929989 70 5472ft 95kts
03-Jan-18 20:34 35.107670 -119.900448 71 5471ft 95kts
03-Jan-18 20:35 35.118417 -119.870828 70 5471ft 95kts
03-Jan-18 20:36 35.129664 -119.841652 68 5472ft 95kts
03-Jan-18 20:37 35.141046 -119.812612 68 5472ft 94kts
03-Jan-18 20:38 35.152325 -119.783574 68 5474ft 94kts
03-Jan-18 20:39 35.161918 -119.754102 70 5475ft 93kts
03-Jan-18 20:40 35.171217 -119.724622 71 5476ft 93kts
03-Jan-18 20:41 35.180695 -119.695135 72 5477ft 93kts
03-Jan-18 20:42 35.190284 -119.665530 73 5478ft 93kts
03-Jan-18 20:43 35.200332 -119.636124 70 5479ft 94kts
03-Jan-18 20:44 35.211679 -119.606217 68 5482ft 100kts
03-Jan-18 20:45 35.224779 -119.575445 66 5483ft 103kts
03-Jan-18 20:46 35.237958 -119.544295 68 5483ft 103kts
03-Jan-18 20:47 35.250711 -119.512678 68 5484ft 104kts
03-Jan-18 20:48 35.263455 -119.480879 68 5483ft 104kts
03-Jan-18 20:49 35.276212 -119.448997 68 5483ft 104kts
03-Jan-18 20:50 35.288982 -119.417054 68 5483ft 104kts
03-Jan-18 20:51 35.301658 -119.385104 73 5482ft 103kts
03-Jan-18 20:52 35.329694 -119.386588 340 5483ft 120kts
03-Jan-18 20:53 35.361085 -119.400547 344 5483ft 120kts
03-Jan-18 20:54 35.392427 -119.413574 345 5488ft 118kts
03-Jan-18 20:55 35.422923 -119.426121 339 5496ft 109kts
03-Jan-18 20:56 35.450317 -119.437889 324 5500ft 101kts
03-Jan-18 20:57 35.473567 -119.452304 353 5498ft 105kts
03-Jan-18 20:58 35.502293 -119.459508 338 5007ft 105kts
03-Jan-18 20:59 35.530151 -119.470583 337 4511ft 105kts
03-Jan-18 21:00 35.557635 -119.472656 49 4000ft 114kts
03-Jan-18 21:01 35.561897 -119.433029 80 3437ft 116kts
03-Jan-18 21:02 35.566274 -119.397855 78 3437ft 100kts
03-Jan-18 21:03 35.570687 -119.364559 78 3438ft 98kts
03-Jan-18 21:04 35.575175 -119.330701 79 3437ft 102kts
03-Jan-18 21:05 35.579756 -119.296049 79 3437ft 103kts
03-Jan-18 21:06 35.584327 -119.261400 78 3436ft 103kts
03-Jan-18 21:07 35.575275 -119.230316 134 3122ft 103kts
03-Jan-18 21:08 35.555799 -119.206096 134 2633ft 98kts
03-Jan-18 21:09 35.538264 -119.184457 132 2545ft 84kts
03-Jan-18 21:10 35.521386 -119.163159 129 2543ft 88kts
03-Jan-18 21:11 35.502240 -119.139527 131 2094ft 100kts
03-Jan-18 21:12 35.482771 -119.115799 130 1554ft 96kts
03-Jan-18 21:13 35.464136 -119.093145 132 1039ft 92kts
03-Jan-18 21:14 35.446320 -119.071309 133 567ft 85kts
03-Jan-18 21:15 35.438265 -119.061079 97 510ft 18kts
03-Jan-18 21:16 35.438240 -119.059646 91 510ft 0kts
03-Jan-18 21:17 35.438152 -119.059187 133 510ft 5kts
03-Jan-18 21:18 35.436856 -119.057637 134 510ft 5kts
03-Jan-18 21:19 35.435254 -119.055669 139 510ft 9kts
03-Jan-18 21:20 35.432880 -119.052893 134 510ft 11kts
03-Jan-18 21:21 35.430747 -119.050234 136 510ft 11kts
03-Jan-18 21:22 35.429950 -119.048234 72 510ft 7kts
03-Jan-18 21:23 35.429851 -119.046724 128 510ft 0kts

Navigation Log

Ident Type
1. KSMX Airport
2. KBFL Airport